sensor_id;sensor_type;location;lat;lon;timestamp;temperature;humidity
22827;DHT22;11580;52.562;13.418;2023-03-23T00:02:25;16.50;29.40
22827;DHT22;11580;52.562;13.418;2023-03-23T00:04:53;16.40;29.30
22827;DHT22;11580;52.562;13.418;2023-03-23T00:07:23;16.40;29.50
22827;DHT22;11580;52.562;13.418;2023-03-23T00:09:53;16.30;29.50
22827;DHT22;11580;52.562;13.418;2023-03-23T00:12:22;16.20;29.60
22827;DHT22;11580;52.562;13.418;2023-03-23T00:14:54;16.20;29.70
22827;DHT22;11580;52.562;13.418;2023-03-23T00:17:21;16.10;29.70
22827;DHT22;11580;52.562;13.418;2023-03-23T00:19:49;16.10;29.80
22827;DHT22;11580;52.562;13.418;2023-03-23T00:22:17;16.10;30.50
22827;DHT22;11580;52.562;13.418;2023-03-23T00:24:48;16.00;29.90
22827;DHT22;11580;52.562;13.418;2023-03-23T00:27:16;15.90;29.90
22827;DHT22;11580;52.562;13.418;2023-03-23T00:29:44;15.90;30.00
22827;DHT22;11580;52.562;13.418;2023-03-23T00:32:12;15.90;30.00
22827;DHT22;11580;52.562;13.418;2023-03-23T00:34:42;15.80;30.00
22827;DHT22;11580;52.562;13.418;2023-03-23T00:37:11;15.80;30.20
22827;DHT22;11580;52.562;13.418;2023-03-23T00:39:38;15.70;30.90
22827;DHT22;11580;52.562;13.418;2023-03-23T00:42:13;15.70;30.20
22827;DHT22;11580;52.562;13.418;2023-03-23T00:44:42;15.70;30.20
22827;DHT22;11580;52.562;13.418;2023-03-23T00:47:10;15.60;30.30
22827;DHT22;11580;52.562;13.418;2023-03-23T00:49:38;15.60;30.40
22827;DHT22;11580;52.562;13.418;2023-03-23T00:52:07;15.60;30.50
22827;DHT22;11580;52.562;13.418;2023-03-23T00:54:34;15.50;30.50
22827;DHT22;11580;52.562;13.418;2023-03-23T00:57:04;15.50;30.60
22827;DHT22;11580;52.562;13.418;2023-03-23T00:59:33;15.50;30.60
22827;DHT22;11580;52.562;13.418;2023-03-23T01:02:00;15.50;30.70
22827;DHT22;11580;52.562;13.418;2023-03-23T01:04:28;15.40;31.40
22827;DHT22;11580;52.562;13.418;2023-03-23T01:06:57;15.40;30.70
22827;DHT22;11580;52.562;13.418;2023-03-23T01:09:26;15.40;30.80
22827;DHT22;11580;52.562;13.418;2023-03-23T01:11:53;15.30;31.50
22827;DHT22;11580;52.562;13.418;2023-03-23T01:14:22;15.30;31.60
22827;DHT22;11580;52.562;13.418;2023-03-23T01:16:52;15.20;30.80
22827;DHT22;11580;52.562;13.418;2023-03-23T01:19:19;15.20;30.80
22827;DHT22;11580;52.562;13.418;2023-03-23T01:21:46;15.20;30.90
22827;DHT22;11580;52.562;13.418;2023-03-23T01:24:13;15.20;31.00
22827;DHT22;11580;52.562;13.418;2023-03-23T01:26:41;15.10;31.00
22827;DHT22;11580;52.562;13.418;2023-03-23T01:29:08;15.10;31.00
22827;DHT22;11580;52.562;13.418;2023-03-23T01:31:35;15.10;31.80
22827;DHT22;11580;52.562;13.418;2023-03-23T01:34:06;15.10;31.20
22827;DHT22;11580;52.562;13.418;2023-03-23T01:36:34;15.00;31.10
22827;DHT22;11580;52.562;13.418;2023-03-23T01:39:04;15.00;31.30
22827;DHT22;11580;52.562;13.418;2023-03-23T01:41:33;15.00;31.40
22827;DHT22;11580;52.562;13.418;2023-03-23T01:47:32;15.00;31.30
22827;DHT22;11580;52.562;13.418;2023-03-23T01:50:01;15.00;32.40
22827;DHT22;11580;52.562;13.418;2023-03-23T01:52:29;15.00;31.70
22827;DHT22;11580;52.562;13.418;2023-03-23T01:55:01;15.00;31.80
22827;DHT22;11580;52.562;13.418;2023-03-23T01:57:30;15.00;31.90
22827;DHT22;11580;52.562;13.418;2023-03-23T02:00:03;15.00;32.00
22827;DHT22;11580;52.562;13.418;2023-03-23T02:02:41;15.10;31.80
22827;DHT22;11580;52.562;13.418;2023-03-23T02:05:14;15.10;31.90
22827;DHT22;11580;52.562;13.418;2023-03-23T02:07:47;15.10;31.70
22827;DHT22;11580;52.562;13.418;2023-03-23T02:10:16;15.20;32.10
22827;DHT22;11580;52.562;13.418;2023-03-23T02:12:43;15.20;32.00
22827;DHT22;11580;52.562;13.418;2023-03-23T02:15:12;15.30;32.10
22827;DHT22;11580;52.562;13.418;2023-03-23T02:17:45;15.30;31.90
22827;DHT22;11580;52.562;13.418;2023-03-23T02:20:29;15.30;31.60
22827;DHT22;11580;52.562;13.418;2023-03-23T02:23:25;15.40;32.10
22827;DHT22;11580;52.562;13.418;2023-03-23T02:26:15;15.40;31.30
22827;DHT22;11580;52.562;13.418;2023-03-23T02:29:13;15.50;31.30
22827;DHT22;11580;52.562;13.418;2023-03-23T02:32:16;15.50;31.10
22827;DHT22;11580;52.562;13.418;2023-03-23T02:34:56;15.60;31.10
22827;DHT22;11580;52.562;13.418;2023-03-23T02:37:31;15.60;31.40
22827;DHT22;11580;52.562;13.418;2023-03-23T02:40:07;15.70;31.40
22827;DHT22;11580;52.562;13.418;2023-03-23T02:42:42;15.70;31.40
22827;DHT22;11580;52.562;13.418;2023-03-23T02:45:14;15.80;31.40
22827;DHT22;11580;52.562;13.418;2023-03-23T02:47:46;15.90;31.50
22827;DHT22;11580;52.562;13.418;2023-03-23T02:50:17;15.90;32.30
22827;DHT22;11580;52.562;13.418;2023-03-23T02:52:48;16.00;32.40
22827;DHT22;11580;52.562;13.418;2023-03-23T02:55:18;16.00;31.70
22827;DHT22;11580;52.562;13.418;2023-03-23T02:57:50;16.10;31.90
22827;DHT22;11580;52.562;13.418;2023-03-23T03:00:19;16.20;32.00
22827;DHT22;11580;52.562;13.418;2023-03-23T03:02:50;16.20;32.10
22827;DHT22;11580;52.562;13.418;2023-03-23T03:05:30;16.30;31.90
22827;DHT22;11580;52.562;13.418;2023-03-23T03:08:23;16.30;31.40
22827;DHT22;11580;52.562;13.418;2023-03-23T03:10:57;16.40;31.40
22827;DHT22;11580;52.562;13.418;2023-03-23T03:13:35;16.40;31.70
22827;DHT22;11580;52.562;13.418;2023-03-23T03:16:17;16.40;32.20
22827;DHT22;11580;52.562;13.418;2023-03-23T03:18:55;16.50;31.30
22827;DHT22;11580;52.562;13.418;2023-03-23T03:21:28;16.50;31.50
22827;DHT22;11580;52.562;13.418;2023-03-23T03:24:00;16.50;31.40
22827;DHT22;11580;52.562;13.418;2023-03-23T03:26:30;16.60;31.70
22827;DHT22;11580;52.562;13.418;2023-03-23T03:29:18;16.60;31.60
22827;DHT22;11580;52.562;13.418;2023-03-23T03:31:52;16.70;31.60
22827;DHT22;11580;52.562;13.418;2023-03-23T03:34:23;16.70;31.30
22827;DHT22;11580;52.562;13.418;2023-03-23T03:36:54;16.70;31.60
22827;DHT22;11580;52.562;13.418;2023-03-23T03:39:25;16.70;31.10
22827;DHT22;11580;52.562;13.418;2023-03-23T03:41:54;16.70;31.40
22827;DHT22;11580;52.562;13.418;2023-03-23T03:44:22;16.70;31.50
22827;DHT22;11580;52.562;13.418;2023-03-23T03:46:49;16.70;31.70
22827;DHT22;11580;52.562;13.418;2023-03-23T03:49:16;16.70;31.70
22827;DHT22;11580;52.562;13.418;2023-03-23T03:51:44;16.80;32.00
22827;DHT22;11580;52.562;13.418;2023-03-23T03:54:20;16.70;32.00
22827;DHT22;11580;52.562;13.418;2023-03-23T03:56:47;16.70;31.90
22827;DHT22;11580;52.562;13.418;2023-03-23T03:59:36;16.70;32.10
22827;DHT22;11580;52.562;13.418;2023-03-23T04:02:12;16.70;32.30
22827;DHT22;11580;52.562;13.418;2023-03-23T04:04:42;16.70;32.90
22827;DHT22;11580;52.562;13.418;2023-03-23T04:07:09;16.70;32.30
22827;DHT22;11580;52.562;13.418;2023-03-23T04:09:40;16.70;32.20
22827;DHT22;11580;52.562;13.418;2023-03-23T04:12:10;16.60;32.00
22827;DHT22;11580;52.562;13.418;2023-03-23T04:15:07;16.60;32.10
22827;DHT22;11580;52.562;13.418;2023-03-23T04:17:36;16.60;32.10
22827;DHT22;11580;52.562;13.418;2023-03-23T04:20:05;16.60;32.30
22827;DHT22;11580;52.562;13.418;2023-03-23T04:22:41;16.60;32.30
22827;DHT22;11580;52.562;13.418;2023-03-23T04:25:12;16.60;33.30
22827;DHT22;11580;52.562;13.418;2023-03-23T04:27:41;16.60;32.30
22827;DHT22;11580;52.562;13.418;2023-03-23T04:30:20;16.60;32.40
22827;DHT22;11580;52.562;13.418;2023-03-23T04:33:09;16.60;32.50
22827;DHT22;11580;52.562;13.418;2023-03-23T04:35:41;16.60;32.50
22827;DHT22;11580;52.562;13.418;2023-03-23T04:38:37;16.60;32.50
22827;DHT22;11580;52.562;13.418;2023-03-23T04:41:13;16.60;32.60
22827;DHT22;11580;52.562;13.418;2023-03-23T04:43:52;16.60;32.80
22827;DHT22;11580;52.562;13.418;2023-03-23T04:46:29;16.60;33.10
22827;DHT22;11580;52.562;13.418;2023-03-23T04:49:01;16.60;33.50
22827;DHT22;11580;52.562;13.418;2023-03-23T04:51:35;16.60;33.50
22827;DHT22;11580;52.562;13.418;2023-03-23T04:54:31;16.60;33.50
22827;DHT22;11580;52.562;13.418;2023-03-23T04:57:02;16.60;33.70
22827;DHT22;11580;52.562;13.418;2023-03-23T04:59:31;16.60;33.70
22827;DHT22;11580;52.562;13.418;2023-03-23T05:02:10;16.60;33.80
22827;DHT22;11580;52.562;13.418;2023-03-23T05:04:39;16.50;34.00
22827;DHT22;11580;52.562;13.418;2023-03-23T05:07:12;16.50;34.90
22827;DHT22;11580;52.562;13.418;2023-03-23T05:09:47;16.50;34.50
22827;DHT22;11580;52.562;13.418;2023-03-23T05:12:18;16.50;35.40
22827;DHT22;11580;52.562;13.418;2023-03-23T05:14:55;16.50;34.50
22827;DHT22;11580;52.562;13.418;2023-03-23T05:17:25;16.40;34.70
22827;DHT22;11580;52.562;13.418;2023-03-23T05:19:56;16.40;34.80
22827;DHT22;11580;52.562;13.418;2023-03-23T05:22:42;16.40;35.20
22827;DHT22;11580;52.562;13.418;2023-03-23T05:25:13;16.40;35.10
22827;DHT22;11580;52.562;13.418;2023-03-23T05:27:47;16.30;35.90
22827;DHT22;11580;52.562;13.418;2023-03-23T05:30:41;16.30;35.40
22827;DHT22;11580;52.562;13.418;2023-03-23T05:33:10;16.30;35.40
22827;DHT22;11580;52.562;13.418;2023-03-23T05:35:54;16.20;35.30
22827;DHT22;11580;52.562;13.418;2023-03-23T05:38:27;16.20;35.40
22827;DHT22;11580;52.562;13.418;2023-03-23T05:40:58;16.20;35.50
22827;DHT22;11580;52.562;13.418;2023-03-23T05:43:30;16.20;35.70
22827;DHT22;11580;52.562;13.418;2023-03-23T05:46:07;16.20;35.70
22827;DHT22;11580;52.562;13.418;2023-03-23T05:48:36;16.10;35.60
22827;DHT22;11580;52.562;13.418;2023-03-23T05:51:08;16.10;36.50
22827;DHT22;11580;52.562;13.418;2023-03-23T05:53:38;16.10;35.90
22827;DHT22;11580;52.562;13.418;2023-03-23T05:56:07;16.10;35.90
22827;DHT22;11580;52.562;13.418;2023-03-23T05:58:57;16.00;36.10
22827;DHT22;11580;52.562;13.418;2023-03-23T06:01:26;16.00;36.20
22827;DHT22;11580;52.562;13.418;2023-03-23T06:03:54;16.00;36.30
22827;DHT22;11580;52.562;13.418;2023-03-23T06:06:29;16.00;37.30
22827;DHT22;11580;52.562;13.418;2023-03-23T06:09:09;15.90;36.80
22827;DHT22;11580;52.562;13.418;2023-03-23T06:12:01;15.90;36.90
22827;DHT22;11580;52.562;13.418;2023-03-23T06:14:54;15.80;36.90
22827;DHT22;11580;52.562;13.418;2023-03-23T06:17:29;15.80;37.20
22827;DHT22;11580;52.562;13.418;2023-03-23T06:19:56;15.80;37.20
22827;DHT22;11580;52.562;13.418;2023-03-23T06:22:24;15.70;37.40
22827;DHT22;11580;52.562;13.418;2023-03-23T06:25:15;15.70;37.60
22827;DHT22;11580;52.562;13.418;2023-03-23T06:27:43;15.70;37.80
22827;DHT22;11580;52.562;13.418;2023-03-23T06:30:14;15.60;38.00
22827;DHT22;11580;52.562;13.418;2023-03-23T06:32:42;15.60;38.40
22827;DHT22;11580;52.562;13.418;2023-03-23T06:35:12;15.60;38.30
22827;DHT22;11580;52.562;13.418;2023-03-23T06:38:12;15.60;38.40
22827;DHT22;11580;52.562;13.418;2023-03-23T06:40:46;15.50;38.40
22827;DHT22;11580;52.562;13.418;2023-03-23T06:43:15;15.50;38.60
22827;DHT22;11580;52.562;13.418;2023-03-23T06:46:09;15.50;38.80
22827;DHT22;11580;52.562;13.418;2023-03-23T06:48:39;15.50;38.90
22827;DHT22;11580;52.562;13.418;2023-03-23T06:51:09;15.60;39.00
22827;DHT22;11580;52.562;13.418;2023-03-23T06:53:39;15.60;39.00
22827;DHT22;11580;52.562;13.418;2023-03-23T06:56:11;15.60;39.00
22827;DHT22;11580;52.562;13.418;2023-03-23T06:58:40;15.60;39.00
22827;DHT22;11580;52.562;13.418;2023-03-23T07:01:09;15.60;39.00
22827;DHT22;11580;52.562;13.418;2023-03-23T07:03:41;15.70;39.30
22827;DHT22;11580;52.562;13.418;2023-03-23T07:06:11;15.70;39.20
22827;DHT22;11580;52.562;13.418;2023-03-23T07:08:46;15.70;39.20
22827;DHT22;11580;52.562;13.418;2023-03-23T07:11:19;15.80;39.20
22827;DHT22;11580;52.562;13.418;2023-03-23T07:13:46;15.80;39.30
22827;DHT22;11580;52.562;13.418;2023-03-23T07:16:16;15.80;39.30
22827;DHT22;11580;52.562;13.418;2023-03-23T07:18:44;15.90;39.40
22827;DHT22;11580;52.562;13.418;2023-03-23T07:21:11;15.90;40.20
22827;DHT22;11580;52.562;13.418;2023-03-23T07:23:40;15.90;39.50
22827;DHT22;11580;52.562;13.418;2023-03-23T07:26:14;16.00;39.70
22827;DHT22;11580;52.562;13.418;2023-03-23T07:28:48;16.00;39.80
22827;DHT22;11580;52.562;13.418;2023-03-23T07:31:49;16.00;39.80
22827;DHT22;11580;52.562;13.418;2023-03-23T07:34:17;16.10;39.80
22827;DHT22;11580;52.562;13.418;2023-03-23T07:37:11;16.10;39.90
22827;DHT22;11580;52.562;13.418;2023-03-23T07:39:41;16.20;39.90
22827;DHT22;11580;52.562;13.418;2023-03-23T07:42:10;16.20;39.80
22827;DHT22;11580;52.562;13.418;2023-03-23T07:44:45;16.20;39.90
22827;DHT22;11580;52.562;13.418;2023-03-23T07:47:15;16.30;39.90
22827;DHT22;11580;52.562;13.418;2023-03-23T07:49:45;16.30;39.90
22827;DHT22;11580;52.562;13.418;2023-03-23T07:52:36;16.40;40.70
22827;DHT22;11580;52.562;13.418;2023-03-23T07:55:06;16.40;40.00
22827;DHT22;11580;52.562;13.418;2023-03-23T07:58:00;16.50;40.00
22827;DHT22;11580;52.562;13.418;2023-03-23T08:00:28;16.60;40.30
22827;DHT22;11580;52.562;13.418;2023-03-23T08:02:58;16.60;40.20
22827;DHT22;11580;52.562;13.418;2023-03-23T08:05:33;16.70;40.30
22827;DHT22;11580;52.562;13.418;2023-03-23T08:08:20;16.80;40.30
22827;DHT22;11580;52.562;13.418;2023-03-23T08:11:07;17.00;40.20
22827;DHT22;11580;52.562;13.418;2023-03-23T08:13:53;17.10;40.10
22827;DHT22;11580;52.562;13.418;2023-03-23T08:16:20;17.20;40.70
22827;DHT22;11580;52.562;13.418;2023-03-23T08:19:07;17.20;40.60
22827;DHT22;11580;52.562;13.418;2023-03-23T08:21:53;17.30;40.40
22827;DHT22;11580;52.562;13.418;2023-03-23T08:24:40;17.40;39.60
22827;DHT22;11580;52.562;13.418;2023-03-23T08:27:37;17.40;39.40
22827;DHT22;11580;52.562;13.418;2023-03-23T08:30:18;17.50;39.20
22827;DHT22;11580;52.562;13.418;2023-03-23T08:33:07;17.60;38.80
22827;DHT22;11580;52.562;13.418;2023-03-23T08:36:04;17.60;38.60
22827;DHT22;11580;52.562;13.418;2023-03-23T08:38:52;17.60;38.30
22827;DHT22;11580;52.562;13.418;2023-03-23T08:41:34;17.70;38.40
22827;DHT22;11580;52.562;13.418;2023-03-23T08:44:38;17.70;38.50
22827;DHT22;11580;52.562;13.418;2023-03-23T08:47:24;17.70;39.20
22827;DHT22;11580;52.562;13.418;2023-03-23T08:50:16;17.80;38.50
22827;DHT22;11580;52.562;13.418;2023-03-23T08:53:01;17.80;38.50
22827;DHT22;11580;52.562;13.418;2023-03-23T08:55:36;17.90;38.30
22827;DHT22;11580;52.562;13.418;2023-03-23T08:58:22;18.00;38.50
22827;DHT22;11580;52.562;13.418;2023-03-23T09:01:10;18.10;38.50
22827;DHT22;11580;52.562;13.418;2023-03-23T09:03:52;18.20;38.30
22827;DHT22;11580;52.562;13.418;2023-03-23T09:06:20;18.30;38.20
22827;DHT22;11580;52.562;13.418;2023-03-23T09:08:49;18.30;38.80
22827;DHT22;11580;52.562;13.418;2023-03-23T09:11:16;18.40;37.80
22827;DHT22;11580;52.562;13.418;2023-03-23T09:13:43;18.50;37.90
22827;DHT22;11580;52.562;13.418;2023-03-23T09:16:11;18.60;37.70
22827;DHT22;11580;52.562;13.418;2023-03-23T09:18:38;18.60;38.10
22827;DHT22;11580;52.562;13.418;2023-03-23T09:21:06;18.70;37.10
22827;DHT22;11580;52.562;13.418;2023-03-23T09:23:33;18.70;36.80
22827;DHT22;11580;52.562;13.418;2023-03-23T09:26:03;18.80;37.00
22827;DHT22;11580;52.562;13.418;2023-03-23T09:28:31;18.80;36.60
22827;DHT22;11580;52.562;13.418;2023-03-23T09:30:58;18.90;37.70
22827;DHT22;11580;52.562;13.418;2023-03-23T09:33:26;18.90;37.00
22827;DHT22;11580;52.562;13.418;2023-03-23T09:35:54;19.00;36.90
22827;DHT22;11580;52.562;13.418;2023-03-23T09:38:21;19.10;37.00
22827;DHT22;11580;52.562;13.418;2023-03-23T09:40:55;19.20;37.70
22827;DHT22;11580;52.562;13.418;2023-03-23T09:43:43;19.30;36.00
22827;DHT22;11580;52.562;13.418;2023-03-23T09:46:38;19.40;36.10
22827;DHT22;11580;52.562;13.418;2023-03-23T09:49:17;19.50;36.40
22827;DHT22;11580;52.562;13.418;2023-03-23T09:51:51;19.60;36.20
22827;DHT22;11580;52.562;13.418;2023-03-23T09:54:26;19.70;36.30
22827;DHT22;11580;52.562;13.418;2023-03-23T09:56:58;19.70;35.80
22827;DHT22;11580;52.562;13.418;2023-03-23T09:59:31;19.80;35.60
22827;DHT22;11580;52.562;13.418;2023-03-23T10:02:11;19.90;35.10
22827;DHT22;11580;52.562;13.418;2023-03-23T10:04:44;19.90;34.70
22827;DHT22;11580;52.562;13.418;2023-03-23T10:07:15;20.00;36.20
22827;DHT22;11580;52.562;13.418;2023-03-23T10:09:46;20.10;35.60
22827;DHT22;11580;52.562;13.418;2023-03-23T10:12:22;20.20;35.60
22827;DHT22;11580;52.562;13.418;2023-03-23T10:15:04;20.40;34.40
22827;DHT22;11580;52.562;13.418;2023-03-23T10:17:44;20.40;33.90
22827;DHT22;11580;52.562;13.418;2023-03-23T10:20:23;20.60;34.10
22827;DHT22;11580;52.562;13.418;2023-03-23T10:23:02;20.60;33.30
22827;DHT22;11580;52.562;13.418;2023-03-23T10:25:42;20.70;33.70
22827;DHT22;11580;52.562;13.418;2023-03-23T10:28:13;20.80;33.80
22827;DHT22;11580;52.562;13.418;2023-03-23T10:30:48;20.90;34.90
22827;DHT22;11580;52.562;13.418;2023-03-23T10:33:24;20.90;33.20
22827;DHT22;11580;52.562;13.418;2023-03-23T10:35:59;21.00;33.10
22827;DHT22;11580;52.562;13.418;2023-03-23T10:38:33;21.10;33.20
22827;DHT22;11580;52.562;13.418;2023-03-23T10:41:09;21.20;32.60
22827;DHT22;11580;52.562;13.418;2023-03-23T10:43:38;21.30;32.80
22827;DHT22;11580;52.562;13.418;2023-03-23T10:46:21;21.40;33.40
22827;DHT22;11580;52.562;13.418;2023-03-23T10:48:54;21.40;31.70
22827;DHT22;11580;52.562;13.418;2023-03-23T10:51:28;21.50;33.00
22827;DHT22;11580;52.562;13.418;2023-03-23T10:54:01;21.60;32.10
22827;DHT22;11580;52.562;13.418;2023-03-23T10:56:37;21.60;33.10
22827;DHT22;11580;52.562;13.418;2023-03-23T10:59:13;21.70;31.20
22827;DHT22;11580;52.562;13.418;2023-03-23T11:01:45;21.80;31.60
22827;DHT22;11580;52.562;13.418;2023-03-23T11:04:17;21.80;31.50
22827;DHT22;11580;52.562;13.418;2023-03-23T11:06:48;21.80;31.60
22827;DHT22;11580;52.562;13.418;2023-03-23T11:09:19;21.80;31.30
22827;DHT22;11580;52.562;13.418;2023-03-23T11:11:50;21.80;31.30
22827;DHT22;11580;52.562;13.418;2023-03-23T11:14:23;21.80;31.60
22827;DHT22;11580;52.562;13.418;2023-03-23T11:16:56;21.80;31.10
22827;DHT22;11580;52.562;13.418;2023-03-23T11:19:27;21.80;30.60
22827;DHT22;11580;52.562;13.418;2023-03-23T11:21:59;21.80;31.00
22827;DHT22;11580;52.562;13.418;2023-03-23T11:24:36;21.80;30.40
22827;DHT22;11580;52.562;13.418;2023-03-23T11:27:08;21.70;30.50
22827;DHT22;11580;52.562;13.418;2023-03-23T11:29:47;21.70;30.70
22827;DHT22;11580;52.562;13.418;2023-03-23T11:32:23;21.70;29.60
22827;DHT22;11580;52.562;13.418;2023-03-23T11:34:56;21.70;30.20
22827;DHT22;11580;52.562;13.418;2023-03-23T11:37:31;21.80;30.00
22827;DHT22;11580;52.562;13.418;2023-03-23T11:40:10;21.80;30.00
22827;DHT22;11580;52.562;13.418;2023-03-23T11:42:46;21.80;30.40
22827;DHT22;11580;52.562;13.418;2023-03-23T11:45:18;21.90;30.30
22827;DHT22;11580;52.562;13.418;2023-03-23T11:47:59;22.00;30.00
22827;DHT22;11580;52.562;13.418;2023-03-23T11:50:46;22.00;29.20
22827;DHT22;11580;52.562;13.418;2023-03-23T11:53:23;22.10;29.30
22827;DHT22;11580;52.562;13.418;2023-03-23T11:56:05;22.20;29.60
22827;DHT22;11580;52.562;13.418;2023-03-23T11:58:37;22.30;29.40
22827;DHT22;11580;52.562;13.418;2023-03-23T12:01:11;22.40;30.30
22827;DHT22;11580;52.562;13.418;2023-03-23T12:07:12;22.60;28.90
22827;DHT22;11580;52.562;13.418;2023-03-23T12:09:54;22.60;28.80
22827;DHT22;11580;52.562;13.418;2023-03-23T12:12:35;22.70;29.00
22827;DHT22;11580;52.562;13.418;2023-03-23T12:15:17;22.70;28.30
22827;DHT22;11580;52.562;13.418;2023-03-23T12:17:56;22.70;28.00
22827;DHT22;11580;52.562;13.418;2023-03-23T12:20:39;22.70;27.90
22827;DHT22;11580;52.562;13.418;2023-03-23T12:23:22;22.70;27.90
22827;DHT22;11580;52.562;13.418;2023-03-23T12:26:16;22.60;27.70
22827;DHT22;11580;52.562;13.418;2023-03-23T12:29:22;22.60;27.80
22827;DHT22;11580;52.562;13.418;2023-03-23T12:32:19;22.50;27.90
22827;DHT22;11580;52.562;13.418;2023-03-23T12:35:02;22.40;28.30
22827;DHT22;11580;52.562;13.418;2023-03-23T12:37:49;22.30;27.60
22827;DHT22;11580;52.562;13.418;2023-03-23T12:40:31;22.30;28.10
22827;DHT22;11580;52.562;13.418;2023-03-23T12:43:13;22.20;28.10
22827;DHT22;11580;52.562;13.418;2023-03-23T12:48:57;22.20;27.70
22827;DHT22;11580;52.562;13.418;2023-03-23T12:51:33;22.10;28.30
22827;DHT22;11580;52.562;13.418;2023-03-23T12:54:10;22.10;28.00
22827;DHT22;11580;52.562;13.418;2023-03-23T12:56:44;22.10;27.80
22827;DHT22;11580;52.562;13.418;2023-03-23T12:59:22;22.10;28.30
22827;DHT22;11580;52.562;13.418;2023-03-23T13:01:59;22.10;28.30
22827;DHT22;11580;52.562;13.418;2023-03-23T13:04:35;22.20;28.20
22827;DHT22;11580;52.562;13.418;2023-03-23T13:07:07;22.20;28.50
22827;DHT22;11580;52.562;13.418;2023-03-23T13:09:50;22.30;28.60
22827;DHT22;11580;52.562;13.418;2023-03-23T13:12:23;22.30;27.60
22827;DHT22;11580;52.562;13.418;2023-03-23T13:15:00;22.40;28.90
22827;DHT22;11580;52.562;13.418;2023-03-23T13:17:40;22.40;27.20
22827;DHT22;11580;52.562;13.418;2023-03-23T13:20:41;22.40;27.20
22827;DHT22;11580;52.562;13.418;2023-03-23T13:23:19;22.30;26.90
22827;DHT22;11580;52.562;13.418;2023-03-23T13:25:54;22.20;27.20
22827;DHT22;11580;52.562;13.418;2023-03-23T13:28:24;22.10;27.00
22827;DHT22;11580;52.562;13.418;2023-03-23T13:30:59;22.00;27.60
22827;DHT22;11580;52.562;13.418;2023-03-23T13:33:33;21.90;27.10
22827;DHT22;11580;52.562;13.418;2023-03-23T13:36:07;21.80;26.80
22827;DHT22;11580;52.562;13.418;2023-03-23T13:38:38;21.70;27.20
22827;DHT22;11580;52.562;13.418;2023-03-23T13:41:14;21.60;27.60
22827;DHT22;11580;52.562;13.418;2023-03-23T13:43:44;21.60;27.40
22827;DHT22;11580;52.562;13.418;2023-03-23T13:46:23;21.50;27.90
22827;DHT22;11580;52.562;13.418;2023-03-23T13:49:13;21.50;27.40
22827;DHT22;11580;52.562;13.418;2023-03-23T13:51:53;21.50;26.60
22827;DHT22;11580;52.562;13.418;2023-03-23T13:54:31;21.50;26.90
22827;DHT22;11580;52.562;13.418;2023-03-23T13:57:25;21.50;27.00
22827;DHT22;11580;52.562;13.418;2023-03-23T14:00:25;21.50;26.40
22827;DHT22;11580;52.562;13.418;2023-03-23T14:03:05;21.60;26.40
22827;DHT22;11580;52.562;13.418;2023-03-23T14:05:39;21.60;27.40
22827;DHT22;11580;52.562;13.418;2023-03-23T14:08:20;21.60;27.30
22827;DHT22;11580;52.562;13.418;2023-03-23T14:10:52;21.70;27.00
22827;DHT22;11580;52.562;13.418;2023-03-23T14:13:29;21.80;27.10
22827;DHT22;11580;52.562;13.418;2023-03-23T14:16:01;21.90;26.60
22827;DHT22;11580;52.562;13.418;2023-03-23T14:18:34;21.90;26.90
22827;DHT22;11580;52.562;13.418;2023-03-23T14:21:04;22.10;26.80
22827;DHT22;11580;52.562;13.418;2023-03-23T14:23:33;22.10;26.80
22827;DHT22;11580;52.562;13.418;2023-03-23T14:26:02;22.20;26.90
22827;DHT22;11580;52.562;13.418;2023-03-23T14:28:41;22.20;26.80
22827;DHT22;11580;52.562;13.418;2023-03-23T14:31:16;22.30;26.40
22827;DHT22;11580;52.562;13.418;2023-03-23T14:33:46;22.30;25.40
22827;DHT22;11580;52.562;13.418;2023-03-23T14:36:15;22.30;26.60
22827;DHT22;11580;52.562;13.418;2023-03-23T14:38:59;22.20;26.30
22827;DHT22;11580;52.562;13.418;2023-03-23T14:41:30;22.20;26.30
22827;DHT22;11580;52.562;13.418;2023-03-23T14:44:01;22.10;26.00
22827;DHT22;11580;52.562;13.418;2023-03-23T14:46:30;22.00;25.50
22827;DHT22;11580;52.562;13.418;2023-03-23T14:49:00;21.90;25.90
22827;DHT22;11580;52.562;13.418;2023-03-23T14:51:28;21.80;25.50
22827;DHT22;11580;52.562;13.418;2023-03-23T14:53:58;21.70;26.60
22827;DHT22;11580;52.562;13.418;2023-03-23T14:56:33;21.70;25.70
22827;DHT22;11580;52.562;13.418;2023-03-23T14:59:06;21.60;25.10
22827;DHT22;11580;52.562;13.418;2023-03-23T15:01:36;21.60;25.60
22827;DHT22;11580;52.562;13.418;2023-03-23T15:04:09;21.60;26.10
22827;DHT22;11580;52.562;13.418;2023-03-23T15:06:42;21.60;25.70
22827;DHT22;11580;52.562;13.418;2023-03-23T15:09:13;21.60;25.90
22827;DHT22;11580;52.562;13.418;2023-03-23T15:11:52;21.60;26.20
22827;DHT22;11580;52.562;13.418;2023-03-23T15:14:27;21.60;25.40
22827;DHT22;11580;52.562;13.418;2023-03-23T15:16:58;21.60;25.60
22827;DHT22;11580;52.562;13.418;2023-03-23T15:19:31;21.60;26.40
22827;DHT22;11580;52.562;13.418;2023-03-23T15:22:05;21.60;26.40
22827;DHT22;11580;52.562;13.418;2023-03-23T15:24:36;21.60;25.90
22827;DHT22;11580;52.562;13.418;2023-03-23T15:27:12;21.60;26.40
22827;DHT22;11580;52.562;13.418;2023-03-23T15:29:53;21.50;25.80
22827;DHT22;11580;52.562;13.418;2023-03-23T15:32:23;21.50;25.70
22827;DHT22;11580;52.562;13.418;2023-03-23T15:34:52;21.40;26.30
22827;DHT22;11580;52.562;13.418;2023-03-23T15:37:24;21.40;26.30
22827;DHT22;11580;52.562;13.418;2023-03-23T15:39:53;21.30;26.20
22827;DHT22;11580;52.562;13.418;2023-03-23T15:42:28;21.30;26.30
22827;DHT22;11580;52.562;13.418;2023-03-23T15:45:24;21.20;26.00
22827;DHT22;11580;52.562;13.418;2023-03-23T15:47:54;21.10;25.80
22827;DHT22;11580;52.562;13.418;2023-03-23T15:50:34;21.10;26.10
22827;DHT22;11580;52.562;13.418;2023-03-23T15:53:16;21.00;25.50
22827;DHT22;11580;52.562;13.418;2023-03-23T15:55:49;20.90;25.40
22827;DHT22;11580;52.562;13.418;2023-03-23T15:58:16;20.80;26.00
22827;DHT22;11580;52.562;13.418;2023-03-23T16:00:46;20.70;26.10
22827;DHT22;11580;52.562;13.418;2023-03-23T16:03:18;20.60;25.80
22827;DHT22;11580;52.562;13.418;2023-03-23T16:05:49;20.60;25.80
22827;DHT22;11580;52.562;13.418;2023-03-23T16:08:17;20.50;26.20
22827;DHT22;11580;52.562;13.418;2023-03-23T16:10:44;20.50;26.30
22827;DHT22;11580;52.562;13.418;2023-03-23T16:13:12;20.50;26.30
22827;DHT22;11580;52.562;13.418;2023-03-23T16:15:39;20.50;26.20